createdAt,value
2018-11-29T00:00:27.518Z,6.50
2018-11-29T00:02:56.212Z,7.10
2018-11-29T00:05:24.733Z,5.90
2018-11-29T00:07:53.607Z,7.60
2018-11-29T00:10:22.091Z,6.23
2018-11-29T00:12:50.600Z,7.37
2018-11-29T00:15:19.084Z,6.80
2018-11-29T00:17:47.639Z,7.27
2018-11-29T00:20:17.235Z,7.17
2018-11-29T00:22:46.522Z,7.43
2018-11-29T00:25:16.128Z,6.27
2018-11-29T00:27:45.234Z,6.40
2018-11-29T00:30:18.525Z,6.43
2018-11-29T00:39:46.347Z,6.30
2018-11-29T00:42:14.832Z,7.30
2018-11-29T00:44:43.303Z,6.70
2018-11-29T00:47:11.762Z,6.93
2018-11-29T00:49:40.267Z,7.43
2018-11-29T00:52:08.850Z,7.77
2018-11-29T00:54:37.405Z,7.00
2018-11-29T00:57:06.231Z,7.07
2018-11-29T00:59:34.859Z,7.40
2018-11-29T01:02:03.408Z,6.47
2018-11-29T01:04:32.093Z,7.47
2018-11-29T01:07:00.592Z,7.10
2018-11-29T01:09:29.028Z,6.60
2018-11-29T01:11:57.523Z,6.97
2018-11-29T01:14:26.247Z,7.30
2018-11-29T01:16:54.823Z,6.83
2018-11-29T01:19:23.491Z,7.10
2018-11-29T01:21:52.245Z,6.80
2018-11-29T01:24:20.754Z,7.27
2018-11-29T01:26:49.246Z,7.70
2018-11-29T01:29:17.711Z,7.73
2018-11-29T01:31:46.239Z,7.30
2018-11-29T01:34:14.666Z,7.50
2018-11-29T01:36:43.155Z,7.40
2018-11-29T01:39:11.663Z,7.70
2018-11-29T01:41:40.131Z,7.50
2018-11-29T01:44:08.627Z,7.90
2018-11-29T01:46:37.174Z,8.07
2018-11-29T01:49:05.771Z,8.40
2018-11-29T01:51:34.258Z,7.70
2018-11-29T01:54:02.869Z,7.63
2018-11-29T01:56:31.326Z,7.47
2018-11-29T01:58:59.865Z,8.60
2018-11-29T02:01:28.376Z,7.90
2018-11-29T02:03:56.965Z,7.87
2018-11-29T02:06:25.522Z,7.97
2018-11-29T02:08:54.042Z,8.37
2018-11-29T02:11:22.614Z,8.57
2018-11-29T02:13:51.103Z,7.83
2018-11-29T02:16:19.582Z,8.57
2018-11-29T02:18:48.077Z,8.93
2018-11-29T02:21:16.632Z,8.97
2018-11-29T02:23:45.269Z,8.60
2018-11-29T02:26:13.811Z,8.80
2018-11-29T02:28:47.022Z,8.43
2018-11-29T02:31:15.754Z,8.30
2018-11-29T02:33:44.280Z,8.67
2018-11-29T02:36:12.791Z,9.33
2018-11-29T02:38:41.252Z,9.40
2018-11-29T02:41:09.802Z,9.00
2018-11-29T02:43:38.321Z,9.63
2018-11-29T02:46:06.896Z,10.07
2018-11-29T02:48:35.388Z,9.83
2018-11-29T02:51:03.862Z,10.50
2018-11-29T02:53:32.351Z,9.47
2018-11-29T02:56:01.879Z,10.50
2018-11-29T02:58:30.365Z,10.30
2018-11-29T03:00:58.915Z,9.60
2018-11-29T03:03:27.418Z,9.20
2018-11-29T03:05:55.903Z,10.00
2018-11-29T03:08:24.356Z,10.60
2018-11-29T03:10:53.142Z,10.70
2018-11-29T03:13:21.623Z,10.50
2018-11-29T03:15:50.098Z,10.67
2018-11-29T03:18:18.603Z,10.47
2018-11-29T03:20:47.085Z,10.93
2018-11-29T03:23:15.558Z,10.83
2018-11-29T03:25:44.098Z,10.33
2018-11-29T03:28:12.632Z,11.00
2018-11-29T03:30:41.143Z,10.33
2018-11-29T03:33:09.600Z,10.20
2018-11-29T03:35:38.107Z,10.27
2018-11-29T03:38:06.793Z,9.97
2018-11-29T03:40:35.274Z,10.87
2018-11-29T03:43:03.725Z,10.63
2018-11-29T03:45:32.253Z,10.20
2018-11-29T03:48:00.905Z,10.13
2018-11-29T03:50:29.351Z,10.70
2018-11-29T03:52:57.872Z,10.93
2018-11-29T03:55:26.409Z,12.30
2018-11-29T03:57:54.910Z,10.83
2018-11-29T04:00:23.394Z,11.53
2018-11-29T04:02:51.922Z,10.40
2018-11-29T04:05:20.362Z,10.43
2018-11-29T04:07:48.910Z,11.07
2018-11-29T04:10:17.459Z,11.30
2018-11-29T04:12:45.902Z,10.50
2018-11-29T04:15:15.867Z,12.63
2018-11-29T04:17:44.694Z,12.10
2018-11-29T04:20:16.262Z,11.30
2018-11-29T04:22:44.778Z,11.20
2018-11-29T04:25:14.179Z,10.90
2018-11-29T04:27:42.638Z,11.80
2018-11-29T04:30:13.309Z,12.47
2018-11-29T04:32:41.730Z,11.40
2018-11-29T04:35:10.844Z,12.27
2018-11-29T04:37:39.693Z,12.03
2018-11-29T04:40:13.254Z,11.07
2018-11-29T04:42:41.731Z,11.83
2018-11-29T04:45:12.358Z,12.77
2018-11-29T04:47:40.891Z,12.20
2018-11-29T04:50:09.435Z,12.30
2018-11-29T04:52:37.926Z,12.37
2018-11-29T04:55:07.605Z,12.00
2018-11-29T04:57:36.115Z,12.70
2018-11-29T05:00:11.463Z,13.07
2018-11-29T05:02:39.938Z,12.57
2018-11-29T05:05:08.912Z,12.40
2018-11-29T05:07:37.538Z,13.40
2018-11-29T05:10:07.846Z,14.37
2018-11-29T05:12:36.786Z,13.53
2018-11-29T05:15:07.451Z,14.20
2018-11-29T05:17:35.910Z,14.87
2018-11-29T05:20:05.206Z,14.80
2018-11-29T05:22:33.710Z,13.97
2018-11-29T05:25:02.226Z,14.23
2018-11-29T05:27:30.750Z,15.00
2018-11-29T05:29:59.294Z,14.27
2018-11-29T05:32:27.733Z,14.10
2018-11-29T05:34:56.256Z,15.10
2018-11-29T05:37:24.714Z,15.50
2018-11-29T05:39:53.184Z,14.73
2018-11-29T05:42:21.650Z,14.90
2018-11-29T05:44:50.179Z,13.97
2018-11-29T05:47:18.654Z,15.83
2018-11-29T05:49:47.122Z,15.73
2018-11-29T05:52:15.594Z,15.73
2018-11-29T05:54:44.145Z,14.20
2018-11-29T05:57:12.655Z,15.90
2018-11-29T05:59:41.140Z,15.07
2018-11-29T06:02:09.648Z,15.07
2018-11-29T06:04:38.139Z,15.10
2018-11-29T06:07:06.711Z,14.60
2018-11-29T06:09:35.161Z,16.50
2018-11-29T06:12:03.718Z,14.43
2018-11-29T06:14:32.226Z,15.20
2018-11-29T06:17:00.730Z,15.20
2018-11-29T06:19:29.273Z,14.40
2018-11-29T06:21:57.806Z,15.13
2018-11-29T06:24:26.292Z,15.13
2018-11-29T06:26:54.753Z,14.80
2018-11-29T06:29:23.287Z,13.90
2018-11-29T06:31:51.830Z,13.53
2018-11-29T06:34:20.323Z,15.13
2018-11-29T06:36:48.768Z,14.90
2018-11-29T06:39:17.238Z,14.30
2018-11-29T06:41:45.762Z,15.40
2018-11-29T06:44:14.212Z,14.87
2018-11-29T06:46:42.759Z,15.30
2018-11-29T06:49:11.278Z,14.70
2018-11-29T06:51:39.759Z,14.07
2018-11-29T06:54:08.251Z,15.67
2018-11-29T06:56:36.747Z,15.13
2018-11-29T06:59:05.458Z,14.90
2018-11-29T07:02:37.422Z,14.83
2018-11-29T07:05:06.323Z,14.53
2018-11-29T07:07:34.875Z,15.50
2018-11-29T07:10:04.234Z,14.00
2018-11-29T07:12:32.763Z,13.87
2018-11-29T07:15:01.256Z,14.30
2018-11-29T07:17:29.828Z,13.63
2018-11-29T07:19:58.295Z,14.37
2018-11-29T07:22:26.811Z,14.17
2018-11-29T07:24:55.291Z,15.47
2018-11-29T07:27:23.769Z,16.60
2018-11-29T07:29:52.280Z,15.90
2018-11-29T07:32:24.016Z,15.07
2018-11-29T07:34:52.707Z,15.47
2018-11-29T07:37:21.173Z,16.20
2018-11-29T07:39:49.791Z,15.60
2018-11-29T07:42:18.318Z,15.37
2018-11-29T07:44:46.802Z,14.20
2018-11-29T07:47:15.337Z,16.70
2018-11-29T07:49:43.863Z,14.23
2018-11-29T07:52:12.372Z,16.60
2018-11-29T07:54:40.885Z,15.50
2018-11-29T07:57:09.416Z,14.97
2018-11-29T07:59:37.885Z,14.50
2018-11-29T08:02:06.390Z,16.07
2018-11-29T08:04:34.872Z,15.50
2018-11-29T08:14:11.719Z,17.03
2018-11-29T08:16:40.149Z,17.37
2018-11-29T08:19:08.648Z,16.47
2018-11-29T08:21:37.112Z,16.00
2018-11-29T08:24:06.282Z,15.70
2018-11-29T08:26:34.815Z,16.33
2018-11-29T08:29:03.346Z,15.97
2018-11-29T08:31:31.836Z,15.33
2018-11-29T08:34:00.319Z,15.50
2018-11-29T08:36:28.863Z,16.83
2018-11-29T08:38:57.312Z,15.43
2018-11-29T08:41:25.830Z,16.17
2018-11-29T08:43:54.386Z,15.80
2018-11-29T08:46:22.881Z,15.87
2018-11-29T08:48:51.335Z,16.43
2018-11-29T08:51:19.865Z,16.00
2018-11-29T08:53:48.436Z,15.60
2018-11-29T08:56:16.898Z,16.67
2018-11-29T08:58:45.432Z,16.83
2018-11-29T09:01:13.971Z,16.53
2018-11-29T09:03:42.435Z,16.30
2018-11-29T09:06:11.049Z,16.13
2018-11-29T09:08:39.499Z,15.80
2018-11-29T09:11:08.003Z,16.40
2018-11-29T09:13:36.488Z,16.43
2018-11-29T09:16:06.035Z,16.50
2018-11-29T09:18:34.650Z,15.50
2018-11-29T09:21:03.367Z,18.17
2018-11-29T09:23:31.999Z,17.07
2018-11-29T09:26:00.535Z,17.00
2018-11-29T09:28:29.016Z,17.07
2018-11-29T09:30:57.547Z,17.73
2018-11-29T09:33:26.125Z,18.27
2018-11-29T09:35:54.665Z,18.63
2018-11-29T09:38:23.151Z,18.47
2018-11-29T09:40:51.635Z,17.73
2018-11-29T09:43:20.118Z,17.40
2018-11-29T09:45:48.590Z,17.83
2018-11-29T09:48:17.067Z,16.87
2018-11-29T09:50:45.630Z,16.80
2018-11-29T09:53:14.143Z,17.40
2018-11-29T09:55:42.647Z,19.43
2018-11-29T09:58:11.130Z,18.67
2018-11-29T10:00:39.586Z,19.43
2018-11-29T10:03:10.458Z,16.60
2018-11-29T10:05:39.555Z,17.90
2018-11-29T10:08:12.016Z,16.40
2018-11-29T10:10:37.747Z,16.13
2018-11-29T10:13:06.408Z,17.50
2018-11-29T10:15:34.900Z,16.93
2018-11-29T10:18:03.414Z,16.97
2018-11-29T10:20:31.985Z,17.67
2018-11-29T10:23:00.540Z,17.83
2018-11-29T10:25:29.311Z,16.70
2018-11-29T10:28:02.003Z,16.83
2018-11-29T10:30:34.687Z,16.27
2018-11-29T10:33:03.254Z,18.20
2018-11-29T10:35:31.775Z,16.77
2018-11-29T10:38:00.340Z,17.30
2018-11-29T10:40:28.970Z,16.30
2018-11-29T10:42:58.522Z,17.80
2018-11-29T10:45:27.192Z,17.73
2018-11-29T10:47:56.295Z,15.60
2018-11-29T10:50:24.860Z,16.33
2018-11-29T10:52:53.590Z,16.40
2018-11-29T10:55:22.214Z,16.87
2018-11-29T10:57:50.772Z,17.53
2018-11-29T11:00:26.748Z,18.53
2018-11-29T11:03:07.576Z,16.90
2018-11-29T11:05:36.760Z,16.30
2018-11-29T11:08:08.481Z,17.47
2018-11-29T11:10:35.398Z,16.87
2018-11-29T11:13:04.003Z,16.90
2018-11-29T11:15:32.622Z,19.60
2018-11-29T11:18:01.371Z,15.70
2018-11-29T11:20:30.015Z,17.30
2018-11-29T11:22:58.807Z,17.40
2018-11-29T11:25:27.335Z,15.23
2018-11-29T11:27:55.980Z,18.57
2018-11-29T11:30:26.345Z,19.53
2018-11-29T11:32:55.098Z,17.90
2018-11-29T11:35:24.448Z,17.60
2018-11-29T11:37:53.031Z,17.40
2018-11-29T11:40:21.693Z,17.00
2018-11-29T11:42:50.302Z,16.80
2018-11-29T11:45:20.798Z,18.00
2018-11-29T11:47:49.300Z,16.27
2018-11-29T11:50:20.708Z,15.50
2018-11-29T11:52:49.598Z,16.70
2018-11-29T11:55:19.301Z,18.40
2018-11-29T11:57:47.693Z,18.97
2018-11-29T12:00:20.013Z,17.40
2018-11-29T12:02:50.575Z,18.07
2018-11-29T12:05:19.235Z,20.70
2018-11-29T12:07:48.241Z,17.60
2018-11-29T12:10:16.935Z,17.40
2018-11-29T12:12:45.542Z,17.60
2018-11-29T12:15:14.838Z,18.30
2018-11-29T12:17:45.595Z,17.70
2018-11-29T12:20:16.291Z,18.10
2018-11-29T12:22:44.914Z,17.90
2018-11-29T12:25:17.558Z,18.17
2018-11-29T12:27:46.108Z,19.73
2018-11-29T12:30:22.209Z,17.30
2018-11-29T12:32:51.404Z,16.80
2018-11-29T12:35:20.143Z,16.90
2018-11-29T12:37:48.759Z,17.63
2018-11-29T12:40:18.377Z,17.10
2018-11-29T12:42:47.021Z,17.27
2018-11-29T12:45:15.691Z,16.77
2018-11-29T12:47:44.614Z,20.40
2018-11-29T12:50:16.394Z,16.07
2018-11-29T12:52:45.110Z,16.03
2018-11-29T12:55:15.020Z,16.00
2018-11-29T12:57:43.740Z,16.10
2018-11-29T13:00:14.489Z,16.77
2018-11-29T13:02:47.926Z,15.70
2018-11-29T13:05:16.491Z,14.20
2018-11-29T13:07:45.007Z,15.37
2018-11-29T13:10:15.090Z,16.37
2018-11-29T13:12:43.649Z,17.23
2018-11-29T13:15:14.658Z,16.40
2018-11-29T13:17:43.153Z,16.90
2018-11-29T13:20:15.091Z,15.50
2018-11-29T13:22:43.683Z,17.00
2018-11-29T13:25:13.702Z,16.73
2018-11-29T13:27:42.364Z,16.03
2018-11-29T13:30:12.523Z,17.40
2018-11-29T13:32:41.147Z,18.00
2018-11-29T13:35:19.175Z,15.87
2018-11-29T13:37:53.831Z,17.70
2018-11-29T13:40:22.285Z,16.10
2018-11-29T13:42:50.788Z,16.73
2018-11-29T13:45:19.291Z,16.90
2018-11-29T13:47:47.751Z,16.30
2018-11-29T13:50:17.154Z,15.90
2018-11-29T13:52:46.015Z,15.57
2018-11-29T13:55:15.375Z,14.87
2018-11-29T13:57:45.118Z,14.13
2018-11-29T14:00:14.867Z,15.10
2018-11-29T14:02:46.951Z,15.00
2018-11-29T14:05:12.822Z,14.10
2018-11-29T14:07:41.372Z,15.33
2018-11-29T14:10:12.596Z,13.30
2018-11-29T14:12:41.055Z,13.97
2018-11-29T14:15:19.312Z,16.17
2018-11-29T14:17:47.927Z,15.47
2018-11-29T14:20:16.454Z,16.67
2018-11-29T14:22:45.065Z,14.80
2018-11-29T14:25:14.430Z,17.92
2018-11-29T14:27:45.152Z,14.53
2018-11-29T14:30:16.236Z,14.43
2018-11-29T14:32:44.812Z,16.50
2018-11-29T14:35:13.322Z,14.85
2018-11-29T14:37:41.948Z,14.57
2018-11-29T14:40:13.435Z,14.57
2018-11-29T14:42:41.941Z,12.70
2018-11-29T14:45:12.394Z,13.83
2018-11-29T14:47:40.916Z,13.67
2018-11-29T14:50:23.735Z,13.30
2018-11-29T14:52:52.215Z,14.93
2018-11-29T14:55:21.791Z,15.27
2018-11-29T14:57:49.363Z,12.63
2018-11-29T15:00:17.884Z,12.00
2018-11-29T15:02:46.420Z,12.27
2018-11-29T15:05:26.800Z,10.43
2018-11-29T15:07:55.288Z,10.83
2018-11-29T15:10:23.771Z,11.13
2018-11-29T15:12:52.255Z,9.53
2018-11-29T15:15:20.791Z,10.40
2018-11-29T15:17:50.199Z,11.17
2018-11-29T15:20:29.218Z,10.80
2018-11-29T15:22:57.749Z,9.73
2018-11-29T15:25:26.624Z,9.97
2018-11-29T15:27:55.121Z,10.90
2018-11-29T15:30:23.974Z,9.90
2018-11-29T15:32:52.727Z,8.83
2018-11-29T15:35:21.268Z,10.47
2018-11-29T15:37:49.805Z,10.83
2018-11-29T15:40:18.628Z,9.47
2018-11-29T15:42:47.467Z,10.67
2018-11-29T15:46:22.370Z,8.83
2018-11-29T15:48:51.235Z,9.40
2018-11-29T15:51:20.852Z,10.40
2018-11-29T15:53:49.448Z,9.97
2018-11-29T15:56:18.026Z,10.03
2018-11-29T15:58:46.554Z,10.53
2018-11-29T16:01:15.119Z,9.60
2018-11-29T16:03:43.697Z,10.60
2018-11-29T16:06:12.287Z,9.13
2018-11-29T16:08:40.839Z,10.73
2018-11-29T16:11:09.386Z,10.30
2018-11-29T16:13:37.992Z,10.70
2018-11-29T16:16:06.628Z,9.23
2018-11-29T16:18:35.286Z,9.97
2018-11-29T16:21:03.850Z,11.30
2018-11-29T16:23:32.394Z,9.30
2018-11-29T16:27:04.315Z,10.33
2018-11-29T16:29:32.941Z,11.00
2018-11-29T16:32:02.164Z,10.70
2018-11-29T16:34:30.983Z,10.67
2018-11-29T16:36:59.515Z,10.40
2018-11-29T16:39:28.030Z,11.67
2018-11-29T16:41:56.572Z,11.40
2018-11-29T16:44:25.043Z,10.70
2018-11-29T16:46:53.607Z,10.27
2018-11-29T16:49:22.068Z,11.10
2018-11-29T16:51:50.597Z,10.60
2018-11-29T16:54:19.038Z,11.10
2018-11-29T16:56:47.552Z,11.13
2018-11-29T16:59:16.047Z,10.30
2018-11-29T17:01:44.587Z,10.23
2018-11-29T17:04:13.102Z,10.87
2018-11-29T17:06:41.995Z,10.27
2018-11-29T17:09:10.550Z,11.40
2018-11-29T17:11:39.076Z,10.60
2018-11-29T17:14:07.650Z,12.00
2018-11-29T17:16:36.136Z,10.87
2018-11-29T17:19:04.686Z,10.43
2018-11-29T17:21:33.202Z,11.07
2018-11-29T17:24:01.717Z,10.10
2018-11-29T17:26:30.290Z,11.80
2018-11-29T17:28:58.847Z,9.53
2018-11-29T17:31:27.361Z,10.17
2018-11-29T17:33:55.918Z,10.00
2018-11-29T17:36:24.350Z,10.57
2018-11-29T17:38:52.908Z,10.93
2018-11-29T17:41:21.511Z,10.53
2018-11-29T17:43:50.406Z,10.40
2018-11-29T17:46:18.926Z,9.70
2018-11-29T17:48:47.769Z,9.20
2018-11-29T17:51:16.951Z,10.03
2018-11-29T17:53:46.535Z,10.93
2018-11-29T17:56:15.062Z,9.03
2018-11-29T17:58:43.570Z,9.70
2018-11-29T18:01:12.158Z,9.67
2018-11-29T18:03:40.680Z,10.17
2018-11-29T18:06:09.216Z,9.80
2018-11-29T18:08:37.976Z,11.60
2018-11-29T18:11:07.591Z,9.90
2018-11-29T18:13:37.378Z,9.80
2018-11-29T18:16:06.663Z,9.20
2018-11-29T18:18:35.134Z,9.37
2018-11-29T18:21:05.279Z,9.87
2018-11-29T18:23:34.935Z,9.87
2018-11-29T18:26:03.562Z,9.20
2018-11-29T18:28:32.083Z,10.10
2018-11-29T18:31:01.680Z,10.57
2018-11-29T18:33:30.243Z,9.87
2018-11-29T18:35:58.842Z,9.80
2018-11-29T18:38:29.363Z,9.70
2018-11-29T18:40:58.988Z,10.10
2018-11-29T18:43:27.641Z,10.20
2018-11-29T18:45:56.236Z,10.20
2018-11-29T18:48:24.708Z,11.07
2018-11-29T18:50:54.503Z,10.70
2018-11-29T18:53:23.945Z,12.50
2018-11-29T18:55:53.102Z,10.43
2018-11-29T18:58:21.631Z,10.67
2018-11-29T19:00:50.575Z,10.57
2018-11-29T19:03:19.083Z,11.43
2018-11-29T19:05:47.589Z,11.57
2018-11-29T19:08:16.324Z,10.70
2018-11-29T19:10:44.821Z,10.70
2018-11-29T19:13:14.672Z,11.07
2018-11-29T19:15:43.197Z,11.70
2018-11-29T19:18:11.977Z,11.77
2018-11-29T19:20:40.583Z,10.87
2018-11-29T19:23:09.906Z,10.90
2018-11-29T19:25:38.419Z,12.37
2018-11-29T19:28:08.036Z,12.60
2018-11-29T19:30:38.297Z,10.50
2018-11-29T19:33:11.159Z,10.50
2018-11-29T19:35:39.781Z,10.80
2018-11-29T19:38:08.759Z,10.67
2018-11-29T19:40:37.715Z,9.67
2018-11-29T19:43:08.325Z,10.50
2018-11-29T19:45:38.019Z,9.90
2018-11-29T19:48:08.338Z,10.70
2018-11-29T19:50:36.887Z,10.73
2018-11-29T19:53:09.343Z,11.50
2018-11-29T19:55:39.279Z,11.40
2018-11-29T19:58:08.005Z,10.07
2018-11-29T20:00:37.754Z,9.60
2018-11-29T20:03:07.390Z,8.83
2018-11-29T20:05:36.222Z,11.03
2018-11-29T20:08:05.650Z,13.03
2018-11-29T20:10:34.600Z,19.47
2018-11-29T20:13:06.547Z,11.43
2018-11-29T20:15:37.544Z,10.17
2018-11-29T20:18:07.047Z,9.20
2018-11-29T20:20:36.394Z,9.93
2018-11-29T20:23:05.095Z,9.80
2018-11-29T20:25:33.788Z,9.97
2018-11-29T20:28:02.542Z,10.70
2018-11-29T20:30:45.718Z,9.40
2018-11-29T20:33:16.705Z,9.90
2018-11-29T20:35:46.795Z,8.60
2018-11-29T20:38:15.443Z,10.37
2018-11-29T20:40:45.578Z,9.57
2018-11-29T20:43:15.651Z,8.77
2018-11-29T20:45:47.462Z,8.93
2018-11-29T20:48:19.423Z,10.57
2018-11-29T20:50:48.891Z,10.40
2018-11-29T20:53:32.498Z,8.53
2018-11-29T20:56:02.853Z,8.40
2018-11-29T20:58:31.689Z,9.27
2018-11-29T21:01:00.506Z,9.70
2018-11-29T21:03:29.092Z,8.50
2018-11-29T21:05:58.757Z,8.13
2018-11-29T21:08:27.347Z,8.80
2018-11-29T21:10:55.830Z,8.93
2018-11-29T21:13:24.296Z,8.90
2018-11-29T21:15:53.226Z,8.63
2018-11-29T21:18:21.888Z,8.10
2018-11-29T21:20:50.332Z,8.13
2018-11-29T21:23:18.903Z,8.80
2018-11-29T21:25:47.498Z,7.97
2018-11-29T21:28:17.902Z,8.73
2018-11-29T21:30:46.359Z,7.63
2018-11-29T21:33:15.963Z,7.57
2018-11-29T21:35:44.416Z,9.80
2018-11-29T21:38:16.076Z,7.40
2018-11-29T21:41:02.332Z,7.50
2018-11-29T21:43:30.853Z,7.93
2018-11-29T21:45:59.794Z,7.77
2018-11-29T21:48:28.407Z,8.80
2018-11-29T21:50:57.083Z,9.20
2018-11-29T21:53:25.711Z,7.70
2018-11-29T21:55:54.270Z,8.40
2018-11-29T21:58:22.860Z,7.80
2018-11-29T22:00:51.623Z,8.57
2018-11-29T22:03:20.239Z,7.70
2018-11-29T22:05:48.855Z,7.50
2018-11-29T22:08:17.639Z,7.40
2018-11-29T22:10:46.182Z,8.30
2018-11-29T22:13:14.745Z,7.97
2018-11-29T22:15:43.506Z,8.13
2018-11-29T22:18:14.935Z,7.90
2018-11-29T22:20:43.574Z,8.80
2018-11-29T22:23:12.214Z,7.23
2018-11-29T22:25:41.392Z,7.97
2018-11-29T22:28:10.259Z,6.97
2018-11-29T22:30:38.798Z,8.10
2018-11-29T22:33:07.453Z,6.30
2018-11-29T22:35:36.074Z,7.30
2018-11-29T22:38:04.796Z,7.20
2018-11-29T22:40:33.548Z,6.70
2018-11-29T22:43:02.187Z,6.43
2018-11-29T22:45:30.771Z,6.87
2018-11-29T22:47:59.429Z,7.97
2018-11-29T22:50:28.784Z,6.60
2018-11-29T22:52:57.415Z,7.03
2018-11-29T22:55:25.987Z,7.07
2018-11-29T22:57:54.617Z,7.13
2018-11-29T23:00:23.279Z,6.63
2018-11-29T23:02:52.960Z,7.70
2018-11-29T23:05:22.186Z,7.30
2018-11-29T23:07:50.754Z,6.60
2018-11-29T23:10:19.386Z,6.47
2018-11-29T23:12:48.121Z,6.30
2018-11-29T23:15:16.777Z,7.13
2018-11-29T23:17:45.356Z,8.03
2018-11-29T23:20:14.256Z,7.23
2018-11-29T23:22:43.729Z,6.30
2018-11-29T23:25:13.328Z,7.13
2018-11-29T23:27:41.945Z,7.00
2018-11-29T23:30:18.255Z,6.10
2018-11-29T23:32:46.879Z,7.20
2018-11-29T23:35:15.999Z,6.67
2018-11-29T23:37:44.477Z,6.53
2018-11-29T23:40:14.369Z,7.80
2018-11-29T23:42:43.061Z,6.70
2018-11-29T23:45:12.567Z,5.97
2018-11-29T23:47:41.366Z,6.67
2018-11-29T23:50:19.460Z,6.90
2018-11-29T23:52:48.010Z,6.03
2018-11-29T23:55:19.727Z,8.17
2018-11-29T23:57:48.194Z,6.33
